sensor_id;sensor_type;location;lat;lon;timestamp;P1;durP1;ratioP1;P2;durP2;ratioP2
76725;SDS011;65651;53.154;17.916;2023-09-19T00:00:48;20.20;;;16.20;;
76725;SDS011;65651;53.154;17.916;2023-09-19T00:03:36;23.90;;;16.20;;
76725;SDS011;65651;53.154;17.916;2023-09-19T00:06:04;22.60;;;16.40;;
76725;SDS011;65651;53.154;17.916;2023-09-19T00:08:34;18.70;;;16.30;;
76725;SDS011;65651;53.154;17.916;2023-09-19T00:11:02;18.80;;;14.10;;
76725;SDS011;65651;53.154;17.916;2023-09-19T00:13:30;18.70;;;15.50;;
76725;SDS011;65651;53.154;17.916;2023-09-19T00:15:58;18.00;;;15.10;;
76725;SDS011;65651;53.154;17.916;2023-09-19T00:18:29;24.80;;;15.90;;
76725;SDS011;65651;53.154;17.916;2023-09-19T00:20:59;26.10;;;19.90;;
76725;SDS011;65651;53.154;17.916;2023-09-19T00:23:26;23.70;;;20.00;;
76725;SDS011;65651;53.154;17.916;2023-09-19T00:25:58;28.70;;;19.10;;
76725;SDS011;65651;53.154;17.916;2023-09-19T00:28:28;19.90;;;15.90;;
76725;SDS011;65651;53.154;17.916;2023-09-19T00:30:56;17.30;;;15.20;;
76725;SDS011;65651;53.154;17.916;2023-09-19T00:33:28;17.00;;;13.40;;
76725;SDS011;65651;53.154;17.916;2023-09-19T00:35:58;17.50;;;11.90;;
76725;SDS011;65651;53.154;17.916;2023-09-19T00:38:26;9.50;;;8.50;;
76725;SDS011;65651;53.154;17.916;2023-09-19T00:40:54;9.70;;;8.60;;
76725;SDS011;65651;53.154;17.916;2023-09-19T00:43:23;13.30;;;9.10;;
76725;SDS011;65651;53.154;17.916;2023-09-19T00:45:54;10.90;;;8.00;;
76725;SDS011;65651;53.154;17.916;2023-09-19T00:48:22;9.90;;;7.10;;
76725;SDS011;65651;53.154;17.916;2023-09-19T00:50:51;14.10;;;7.30;;
76725;SDS011;65651;53.154;17.916;2023-09-19T00:53:21;10.50;;;7.40;;
76725;SDS011;65651;53.154;17.916;2023-09-19T00:55:50;9.50;;;7.30;;
76725;SDS011;65651;53.154;17.916;2023-09-19T00:58:19;11.70;;;7.10;;
76725;SDS011;65651;53.154;17.916;2023-09-19T01:00:50;8.60;;;6.40;;
76725;SDS011;65651;53.154;17.916;2023-09-19T01:03:18;9.70;;;5.80;;
76725;SDS011;65651;53.154;17.916;2023-09-19T01:05:45;6.50;;;5.30;;
76725;SDS011;65651;53.154;17.916;2023-09-19T01:08:15;7.50;;;5.50;;
76725;SDS011;65651;53.154;17.916;2023-09-19T01:10:54;6.40;;;5.10;;
76725;SDS011;65651;53.154;17.916;2023-09-19T01:13:31;9.00;;;5.10;;
76725;SDS011;65651;53.154;17.916;2023-09-19T01:16:12;8.40;;;5.30;;
76725;SDS011;65651;53.154;17.916;2023-09-19T01:27:06;9.30;;;4.50;;
76725;SDS011;65651;53.154;17.916;2023-09-19T01:29:45;9.10;;;3.90;;
76725;SDS011;65651;53.154;17.916;2023-09-19T01:32:15;8.70;;;3.90;;
76725;SDS011;65651;53.154;17.916;2023-09-19T01:34:53;5.90;;;3.30;;
76725;SDS011;65651;53.154;17.916;2023-09-19T01:37:24;10.00;;;4.00;;
76725;SDS011;65651;53.154;17.916;2023-09-19T01:39:57;5.80;;;3.60;;
76725;SDS011;65651;53.154;17.916;2023-09-19T01:45:35;5.60;;;3.30;;
76725;SDS011;65651;53.154;17.916;2023-09-19T01:50:59;7.10;;;3.90;;
76725;SDS011;65651;53.154;17.916;2023-09-19T01:53:30;5.90;;;4.20;;
76725;SDS011;65651;53.154;17.916;2023-09-19T01:56:05;5.00;;;4.00;;
76725;SDS011;65651;53.154;17.916;2023-09-19T01:58:41;7.30;;;4.10;;
76725;SDS011;65651;53.154;17.916;2023-09-19T02:01:14;5.90;;;4.20;;
76725;SDS011;65651;53.154;17.916;2023-09-19T02:03:46;7.00;;;3.80;;
76725;SDS011;65651;53.154;17.916;2023-09-19T02:06:16;9.10;;;4.00;;
76725;SDS011;65651;53.154;17.916;2023-09-19T02:08:45;8.50;;;4.10;;
76725;SDS011;65651;53.154;17.916;2023-09-19T02:11:15;5.50;;;3.90;;
76725;SDS011;65651;53.154;17.916;2023-09-19T02:13:43;7.70;;;4.50;;
76725;SDS011;65651;53.154;17.916;2023-09-19T02:16:11;5.70;;;3.70;;
76725;SDS011;65651;53.154;17.916;2023-09-19T02:18:39;8.20;;;4.90;;
76725;SDS011;65651;53.154;17.916;2023-09-19T02:21:07;10.20;;;4.50;;
76725;SDS011;65651;53.154;17.916;2023-09-19T02:23:34;7.30;;;5.40;;
76725;SDS011;65651;53.154;17.916;2023-09-19T02:26:01;7.00;;;5.40;;
76725;SDS011;65651;53.154;17.916;2023-09-19T02:28:28;9.30;;;5.50;;
76725;SDS011;65651;53.154;17.916;2023-09-19T02:30:57;11.50;;;5.30;;
76725;SDS011;65651;53.154;17.916;2023-09-19T02:33:25;7.20;;;5.20;;
76725;SDS011;65651;53.154;17.916;2023-09-19T02:35:57;9.20;;;6.00;;
76725;SDS011;65651;53.154;17.916;2023-09-19T02:38:25;9.40;;;5.40;;
76725;SDS011;65651;53.154;17.916;2023-09-19T02:40:53;6.70;;;5.50;;
76725;SDS011;65651;53.154;17.916;2023-09-19T02:43:24;10.90;;;6.00;;
76725;SDS011;65651;53.154;17.916;2023-09-19T02:45:51;9.70;;;6.60;;
76725;SDS011;65651;53.154;17.916;2023-09-19T02:48:23;11.30;;;7.20;;
76725;SDS011;65651;53.154;17.916;2023-09-19T02:50:53;15.40;;;8.20;;
76725;SDS011;65651;53.154;17.916;2023-09-19T02:53:20;13.20;;;7.40;;
76725;SDS011;65651;53.154;17.916;2023-09-19T02:55:49;12.20;;;7.20;;
76725;SDS011;65651;53.154;17.916;2023-09-19T02:58:19;11.40;;;6.60;;
76725;SDS011;65651;53.154;17.916;2023-09-19T03:00:47;9.30;;;6.40;;
76725;SDS011;65651;53.154;17.916;2023-09-19T03:03:14;10.90;;;6.80;;
76725;SDS011;65651;53.154;17.916;2023-09-19T03:05:43;9.10;;;6.10;;
76725;SDS011;65651;53.154;17.916;2023-09-19T03:08:14;7.10;;;5.10;;
76725;SDS011;65651;53.154;17.916;2023-09-19T03:10:46;9.80;;;5.60;;
76725;SDS011;65651;53.154;17.916;2023-09-19T03:13:14;9.10;;;5.70;;
76725;SDS011;65651;53.154;17.916;2023-09-19T03:15:42;12.30;;;7.40;;
76725;SDS011;65651;53.154;17.916;2023-09-19T03:18:20;8.90;;;4.90;;
76725;SDS011;65651;53.154;17.916;2023-09-19T03:20:54;12.00;;;5.30;;
76725;SDS011;65651;53.154;17.916;2023-09-19T03:23:22;11.00;;;6.40;;
76725;SDS011;65651;53.154;17.916;2023-09-19T03:25:51;10.00;;;5.10;;
76725;SDS011;65651;53.154;17.916;2023-09-19T03:28:22;10.10;;;5.60;;
76725;SDS011;65651;53.154;17.916;2023-09-19T03:31:04;8.10;;;5.70;;
76725;SDS011;65651;53.154;17.916;2023-09-19T03:33:36;9.90;;;5.30;;
76725;SDS011;65651;53.154;17.916;2023-09-19T03:36:07;6.70;;;4.30;;
76725;SDS011;65651;53.154;17.916;2023-09-19T03:38:35;9.10;;;5.10;;
76725;SDS011;65651;53.154;17.916;2023-09-19T03:41:03;10.10;;;5.10;;
76725;SDS011;65651;53.154;17.916;2023-09-19T03:43:31;10.10;;;5.20;;
76725;SDS011;65651;53.154;17.916;2023-09-19T03:46:03;8.20;;;4.80;;
76725;SDS011;65651;53.154;17.916;2023-09-19T03:48:34;9.40;;;4.60;;
76725;SDS011;65651;53.154;17.916;2023-09-19T03:51:02;11.60;;;5.10;;
76725;SDS011;65651;53.154;17.916;2023-09-19T03:53:29;11.40;;;4.50;;
76725;SDS011;65651;53.154;17.916;2023-09-19T03:55:57;10.40;;;4.90;;
76725;SDS011;65651;53.154;17.916;2023-09-19T03:58:24;9.30;;;4.80;;
76725;SDS011;65651;53.154;17.916;2023-09-19T04:00:55;7.40;;;4.60;;
76725;SDS011;65651;53.154;17.916;2023-09-19T04:03:23;9.60;;;5.10;;
76725;SDS011;65651;53.154;17.916;2023-09-19T04:05:55;6.60;;;4.90;;
76725;SDS011;65651;53.154;17.916;2023-09-19T04:08:23;10.20;;;4.80;;
76725;SDS011;65651;53.154;17.916;2023-09-19T04:10:50;10.00;;;4.70;;
76725;SDS011;65651;53.154;17.916;2023-09-19T04:13:18;10.50;;;5.00;;
76725;SDS011;65651;53.154;17.916;2023-09-19T04:15:45;8.80;;;4.70;;
76725;SDS011;65651;53.154;17.916;2023-09-19T04:18:13;6.60;;;4.40;;
76725;SDS011;65651;53.154;17.916;2023-09-19T04:20:40;7.40;;;3.80;;
76725;SDS011;65651;53.154;17.916;2023-09-19T04:23:08;7.90;;;3.60;;
76725;SDS011;65651;53.154;17.916;2023-09-19T04:25:36;7.00;;;4.30;;
76725;SDS011;65651;53.154;17.916;2023-09-19T04:28:04;7.20;;;4.40;;
76725;SDS011;65651;53.154;17.916;2023-09-19T04:30:34;7.40;;;4.70;;
76725;SDS011;65651;53.154;17.916;2023-09-19T04:33:01;9.80;;;4.80;;
76725;SDS011;65651;53.154;17.916;2023-09-19T04:35:29;10.70;;;4.90;;
76725;SDS011;65651;53.154;17.916;2023-09-19T04:37:58;8.40;;;4.30;;
76725;SDS011;65651;53.154;17.916;2023-09-19T04:40:25;9.20;;;4.50;;
76725;SDS011;65651;53.154;17.916;2023-09-19T04:42:57;7.30;;;4.70;;
76725;SDS011;65651;53.154;17.916;2023-09-19T04:45:24;8.90;;;5.10;;
76725;SDS011;65651;53.154;17.916;2023-09-19T04:47:53;5.60;;;4.10;;
76725;SDS011;65651;53.154;17.916;2023-09-19T04:50:21;7.70;;;4.50;;
76725;SDS011;65651;53.154;17.916;2023-09-19T04:52:50;7.80;;;4.20;;
76725;SDS011;65651;53.154;17.916;2023-09-19T04:55:18;7.30;;;4.40;;
76725;SDS011;65651;53.154;17.916;2023-09-19T04:57:46;7.20;;;5.00;;
76725;SDS011;65651;53.154;17.916;2023-09-19T05:00:15;8.70;;;5.30;;
76725;SDS011;65651;53.154;17.916;2023-09-19T05:02:51;10.20;;;5.10;;
76725;SDS011;65651;53.154;17.916;2023-09-19T05:05:19;7.50;;;5.10;;
76725;SDS011;65651;53.154;17.916;2023-09-19T05:07:47;7.40;;;4.40;;
76725;SDS011;65651;53.154;17.916;2023-09-19T05:10:17;7.90;;;4.80;;
76725;SDS011;65651;53.154;17.916;2023-09-19T05:12:47;9.50;;;3.90;;
76725;SDS011;65651;53.154;17.916;2023-09-19T05:15:18;8.40;;;4.50;;
76725;SDS011;65651;53.154;17.916;2023-09-19T05:17:49;5.80;;;4.00;;
76725;SDS011;65651;53.154;17.916;2023-09-19T05:20:18;9.10;;;4.50;;
76725;SDS011;65651;53.154;17.916;2023-09-19T05:25:29;7.70;;;3.60;;
76725;SDS011;65651;53.154;17.916;2023-09-19T05:27:59;6.50;;;4.20;;
76725;SDS011;65651;53.154;17.916;2023-09-19T05:30:30;7.10;;;3.50;;
76725;SDS011;65651;53.154;17.916;2023-09-19T05:32:58;5.10;;;3.00;;
76725;SDS011;65651;53.154;17.916;2023-09-19T05:35:26;4.50;;;2.90;;
76725;SDS011;65651;53.154;17.916;2023-09-19T05:37:53;6.30;;;3.00;;
76725;SDS011;65651;53.154;17.916;2023-09-19T05:40:22;8.10;;;3.80;;
76725;SDS011;65651;53.154;17.916;2023-09-19T05:42:50;6.20;;;3.50;;
76725;SDS011;65651;53.154;17.916;2023-09-19T05:45:18;7.10;;;3.50;;
76725;SDS011;65651;53.154;17.916;2023-09-19T05:47:52;5.00;;;3.10;;
76725;SDS011;65651;53.154;17.916;2023-09-19T05:50:31;6.60;;;4.00;;
76725;SDS011;65651;53.154;17.916;2023-09-19T05:52:58;5.70;;;4.30;;
76725;SDS011;65651;53.154;17.916;2023-09-19T05:55:26;8.20;;;3.80;;
76725;SDS011;65651;53.154;17.916;2023-09-19T05:57:55;6.60;;;4.50;;
76725;SDS011;65651;53.154;17.916;2023-09-19T06:00:23;7.30;;;4.60;;
76725;SDS011;65651;53.154;17.916;2023-09-19T06:02:51;5.60;;;4.70;;
76725;SDS011;65651;53.154;17.916;2023-09-19T06:05:21;5.80;;;4.30;;
76725;SDS011;65651;53.154;17.916;2023-09-19T06:07:48;6.00;;;5.10;;
76725;SDS011;65651;53.154;17.916;2023-09-19T06:10:18;6.40;;;4.50;;
76725;SDS011;65651;53.154;17.916;2023-09-19T06:12:47;6.30;;;3.90;;
76725;SDS011;65651;53.154;17.916;2023-09-19T06:15:15;6.00;;;5.30;;
76725;SDS011;65651;53.154;17.916;2023-09-19T06:17:49;5.50;;;4.00;;
76725;SDS011;65651;53.154;17.916;2023-09-19T06:20:17;7.10;;;5.30;;
76725;SDS011;65651;53.154;17.916;2023-09-19T06:22:45;12.30;;;4.90;;
76725;SDS011;65651;53.154;17.916;2023-09-19T06:25:13;7.60;;;4.40;;
76725;SDS011;65651;53.154;17.916;2023-09-19T06:27:48;6.00;;;4.30;;
76725;SDS011;65651;53.154;17.916;2023-09-19T06:30:19;5.60;;;4.40;;
76725;SDS011;65651;53.154;17.916;2023-09-19T06:32:48;5.30;;;4.40;;
76725;SDS011;65651;53.154;17.916;2023-09-19T06:35:15;7.70;;;4.30;;
76725;SDS011;65651;53.154;17.916;2023-09-19T06:37:43;7.00;;;4.80;;
76725;SDS011;65651;53.154;17.916;2023-09-19T06:40:11;8.20;;;4.80;;
76725;SDS011;65651;53.154;17.916;2023-09-19T06:42:44;6.60;;;5.30;;
76725;SDS011;65651;53.154;17.916;2023-09-19T06:45:16;7.30;;;5.50;;
76725;SDS011;65651;53.154;17.916;2023-09-19T06:47:47;5.50;;;4.50;;
76725;SDS011;65651;53.154;17.916;2023-09-19T06:50:21;5.20;;;3.90;;
76725;SDS011;65651;53.154;17.916;2023-09-19T06:52:49;8.80;;;4.90;;
76725;SDS011;65651;53.154;17.916;2023-09-19T06:55:19;6.20;;;4.40;;
76725;SDS011;65651;53.154;17.916;2023-09-19T06:57:49;5.90;;;4.20;;
76725;SDS011;65651;53.154;17.916;2023-09-19T07:00:23;6.70;;;4.30;;
76725;SDS011;65651;53.154;17.916;2023-09-19T07:02:56;7.60;;;5.00;;
76725;SDS011;65651;53.154;17.916;2023-09-19T07:05:35;6.90;;;5.10;;
76725;SDS011;65651;53.154;17.916;2023-09-19T07:08:09;6.10;;;4.50;;
76725;SDS011;65651;53.154;17.916;2023-09-19T07:10:39;5.80;;;4.40;;
76725;SDS011;65651;53.154;17.916;2023-09-19T07:13:15;5.30;;;3.70;;
76725;SDS011;65651;53.154;17.916;2023-09-19T07:15:45;6.40;;;4.10;;
76725;SDS011;65651;53.154;17.916;2023-09-19T07:18:14;6.50;;;3.70;;
76725;SDS011;65651;53.154;17.916;2023-09-19T07:20:44;6.10;;;4.50;;
76725;SDS011;65651;53.154;17.916;2023-09-19T07:23:19;5.00;;;4.10;;
76725;SDS011;65651;53.154;17.916;2023-09-19T07:25:50;4.70;;;4.10;;
76725;SDS011;65651;53.154;17.916;2023-09-19T07:28:17;6.20;;;3.80;;
76725;SDS011;65651;53.154;17.916;2023-09-19T07:30:45;5.60;;;3.50;;
76725;SDS011;65651;53.154;17.916;2023-09-19T07:33:12;4.90;;;4.00;;
76725;SDS011;65651;53.154;17.916;2023-09-19T07:35:39;5.00;;;3.20;;
76725;SDS011;65651;53.154;17.916;2023-09-19T07:38:08;11.00;;;3.90;;
76725;SDS011;65651;53.154;17.916;2023-09-19T07:40:38;8.10;;;4.90;;
76725;SDS011;65651;53.154;17.916;2023-09-19T07:43:05;7.10;;;3.40;;
76725;SDS011;65651;53.154;17.916;2023-09-19T07:45:33;4.50;;;3.60;;
76725;SDS011;65651;53.154;17.916;2023-09-19T07:48:00;7.00;;;3.10;;
76725;SDS011;65651;53.154;17.916;2023-09-19T07:50:33;6.90;;;4.20;;
76725;SDS011;65651;53.154;17.916;2023-09-19T07:53:04;6.50;;;3.10;;
76725;SDS011;65651;53.154;17.916;2023-09-19T07:55:33;8.90;;;4.40;;
76725;SDS011;65651;53.154;17.916;2023-09-19T07:58:00;5.10;;;3.80;;
76725;SDS011;65651;53.154;17.916;2023-09-19T08:00:30;4.90;;;4.20;;
76725;SDS011;65651;53.154;17.916;2023-09-19T08:02:59;6.20;;;5.00;;
76725;SDS011;65651;53.154;17.916;2023-09-19T08:05:26;8.80;;;4.70;;
76725;SDS011;65651;53.154;17.916;2023-09-19T08:07:53;8.90;;;3.50;;
76725;SDS011;65651;53.154;17.916;2023-09-19T08:10:23;6.30;;;3.70;;
76725;SDS011;65651;53.154;17.916;2023-09-19T08:12:54;4.70;;;3.40;;
76725;SDS011;65651;53.154;17.916;2023-09-19T08:15:25;4.60;;;2.80;;
76725;SDS011;65651;53.154;17.916;2023-09-19T08:17:52;4.50;;;2.70;;
76725;SDS011;65651;53.154;17.916;2023-09-19T08:20:19;4.20;;;2.60;;
76725;SDS011;65651;53.154;17.916;2023-09-19T08:22:49;4.70;;;2.60;;
76725;SDS011;65651;53.154;17.916;2023-09-19T08:25:26;4.40;;;2.70;;
76725;SDS011;65651;53.154;17.916;2023-09-19T08:27:55;5.10;;;3.70;;
76725;SDS011;65651;53.154;17.916;2023-09-19T08:30:25;4.60;;;3.20;;
76725;SDS011;65651;53.154;17.916;2023-09-19T08:32:57;5.90;;;3.00;;
76725;SDS011;65651;53.154;17.916;2023-09-19T08:35:25;7.40;;;3.10;;
76725;SDS011;65651;53.154;17.916;2023-09-19T08:37:56;3.90;;;3.30;;
76725;SDS011;65651;53.154;17.916;2023-09-19T08:40:24;6.10;;;3.30;;
76725;SDS011;65651;53.154;17.916;2023-09-19T08:42:53;5.10;;;3.40;;
76725;SDS011;65651;53.154;17.916;2023-09-19T08:45:25;3.90;;;2.70;;
76725;SDS011;65651;53.154;17.916;2023-09-19T08:50:33;3.90;;;2.30;;
76725;SDS011;65651;53.154;17.916;2023-09-19T08:53:10;3.80;;;2.40;;
76725;SDS011;65651;53.154;17.916;2023-09-19T08:55:42;3.80;;;2.80;;
76725;SDS011;65651;53.154;17.916;2023-09-19T08:58:14;5.90;;;2.30;;
76725;SDS011;65651;53.154;17.916;2023-09-19T09:00:47;5.40;;;2.10;;
76725;SDS011;65651;53.154;17.916;2023-09-19T09:03:19;4.00;;;2.10;;
76725;SDS011;65651;53.154;17.916;2023-09-19T09:05:50;4.20;;;1.60;;
76725;SDS011;65651;53.154;17.916;2023-09-19T09:08:19;4.20;;;1.90;;
76725;SDS011;65651;53.154;17.916;2023-09-19T09:10:48;3.10;;;1.80;;
76725;SDS011;65651;53.154;17.916;2023-09-19T09:13:17;2.70;;;2.00;;
76725;SDS011;65651;53.154;17.916;2023-09-19T09:15:45;2.40;;;1.80;;
76725;SDS011;65651;53.154;17.916;2023-09-19T09:18:14;3.70;;;1.90;;
76725;SDS011;65651;53.154;17.916;2023-09-19T09:20:42;3.80;;;1.50;;
76725;SDS011;65651;53.154;17.916;2023-09-19T09:23:11;2.60;;;1.40;;
76725;SDS011;65651;53.154;17.916;2023-09-19T09:25:50;4.00;;;1.40;;
76725;SDS011;65651;53.154;17.916;2023-09-19T09:28:27;4.00;;;1.30;;
76725;SDS011;65651;53.154;17.916;2023-09-19T09:30:56;2.70;;;1.50;;
76725;SDS011;65651;53.154;17.916;2023-09-19T09:33:39;3.80;;;1.60;;
76725;SDS011;65651;53.154;17.916;2023-09-19T09:36:08;5.70;;;1.70;;
76725;SDS011;65651;53.154;17.916;2023-09-19T09:38:45;2.90;;;1.50;;
76725;SDS011;65651;53.154;17.916;2023-09-19T09:41:16;3.10;;;1.70;;
76725;SDS011;65651;53.154;17.916;2023-09-19T09:43:54;3.40;;;1.60;;
76725;SDS011;65651;53.154;17.916;2023-09-19T09:46:29;4.10;;;1.40;;
76725;SDS011;65651;53.154;17.916;2023-09-19T09:49:24;3.10;;;1.50;;
76725;SDS011;65651;53.154;17.916;2023-09-19T09:52:00;3.40;;;1.80;;
76725;SDS011;65651;53.154;17.916;2023-09-19T09:54:38;4.30;;;1.80;;
76725;SDS011;65651;53.154;17.916;2023-09-19T09:57:06;4.30;;;1.70;;
76725;SDS011;65651;53.154;17.916;2023-09-19T10:02:18;3.70;;;2.30;;
76725;SDS011;65651;53.154;17.916;2023-09-19T10:04:52;3.10;;;1.30;;
76725;SDS011;65651;53.154;17.916;2023-09-19T10:07:29;2.80;;;1.90;;
76725;SDS011;65651;53.154;17.916;2023-09-19T10:10:04;3.10;;;1.90;;
76725;SDS011;65651;53.154;17.916;2023-09-19T10:12:50;3.80;;;1.60;;
76725;SDS011;65651;53.154;17.916;2023-09-19T10:15:22;4.10;;;1.60;;
76725;SDS011;65651;53.154;17.916;2023-09-19T10:18:00;4.00;;;1.40;;
76725;SDS011;65651;53.154;17.916;2023-09-19T10:20:31;4.20;;;1.50;;
76725;SDS011;65651;53.154;17.916;2023-09-19T10:23:00;4.10;;;1.30;;
76725;SDS011;65651;53.154;17.916;2023-09-19T10:25:30;2.50;;;1.40;;
76725;SDS011;65651;53.154;17.916;2023-09-19T10:28:00;4.60;;;2.40;;
76725;SDS011;65651;53.154;17.916;2023-09-19T10:30:33;4.40;;;1.90;;
76725;SDS011;65651;53.154;17.916;2023-09-19T10:33:14;4.00;;;1.80;;
76725;SDS011;65651;53.154;17.916;2023-09-19T10:35:43;7.00;;;1.70;;
76725;SDS011;65651;53.154;17.916;2023-09-19T10:38:22;3.20;;;2.20;;
76725;SDS011;65651;53.154;17.916;2023-09-19T10:40:52;3.50;;;2.00;;
76725;SDS011;65651;53.154;17.916;2023-09-19T10:43:22;7.20;;;1.70;;
76725;SDS011;65651;53.154;17.916;2023-09-19T10:45:53;2.90;;;1.30;;
76725;SDS011;65651;53.154;17.916;2023-09-19T10:48:23;5.50;;;2.00;;
76725;SDS011;65651;53.154;17.916;2023-09-19T10:50:53;4.20;;;1.70;;
76725;SDS011;65651;53.154;17.916;2023-09-19T10:53:49;4.40;;;1.80;;
76725;SDS011;65651;53.154;17.916;2023-09-19T10:56:19;5.80;;;1.60;;
76725;SDS011;65651;53.154;17.916;2023-09-19T11:01:44;3.40;;;1.70;;
76725;SDS011;65651;53.154;17.916;2023-09-19T11:04:28;4.70;;;1.70;;
76725;SDS011;65651;53.154;17.916;2023-09-19T11:07:00;3.40;;;1.50;;
76725;SDS011;65651;53.154;17.916;2023-09-19T11:12:47;2.40;;;1.30;;
76725;SDS011;65651;53.154;17.916;2023-09-19T11:15:07;3.80;;;1.60;;
76725;SDS011;65651;53.154;17.916;2023-09-19T11:17:37;5.60;;;1.60;;
76725;SDS011;65651;53.154;17.916;2023-09-19T11:30:45;2.80;;;1.40;;
76725;SDS011;65651;53.154;17.916;2023-09-19T11:33:22;2.20;;;1.20;;
76725;SDS011;65651;53.154;17.916;2023-09-19T11:43:49;2.30;;;1.40;;
76725;SDS011;65651;53.154;17.916;2023-09-19T11:46:18;2.80;;;1.40;;
76725;SDS011;65651;53.154;17.916;2023-09-19T11:48:51;5.20;;;1.20;;
76725;SDS011;65651;53.154;17.916;2023-09-19T11:51:20;4.50;;;1.30;;
76725;SDS011;65651;53.154;17.916;2023-09-19T11:53:54;2.90;;;1.40;;
76725;SDS011;65651;53.154;17.916;2023-09-19T11:56:28;4.60;;;1.50;;
76725;SDS011;65651;53.154;17.916;2023-09-19T11:58:58;2.30;;;1.40;;
76725;SDS011;65651;53.154;17.916;2023-09-19T12:01:30;3.60;;;1.90;;
76725;SDS011;65651;53.154;17.916;2023-09-19T12:03:59;2.60;;;1.50;;
76725;SDS011;65651;53.154;17.916;2023-09-19T12:06:30;3.60;;;1.20;;
76725;SDS011;65651;53.154;17.916;2023-09-19T12:09:02;3.60;;;1.70;;
76725;SDS011;65651;53.154;17.916;2023-09-19T12:11:34;3.10;;;1.20;;
76725;SDS011;65651;53.154;17.916;2023-09-19T12:14:10;2.40;;;1.40;;
76725;SDS011;65651;53.154;17.916;2023-09-19T12:16:38;2.90;;;1.40;;
76725;SDS011;65651;53.154;17.916;2023-09-19T12:19:18;2.80;;;1.00;;
76725;SDS011;65651;53.154;17.916;2023-09-19T12:21:55;3.30;;;1.70;;
76725;SDS011;65651;53.154;17.916;2023-09-19T12:24:32;3.80;;;1.20;;
76725;SDS011;65651;53.154;17.916;2023-09-19T12:27:03;2.40;;;1.10;;
76725;SDS011;65651;53.154;17.916;2023-09-19T12:29:41;3.50;;;1.20;;
76725;SDS011;65651;53.154;17.916;2023-09-19T12:32:13;5.30;;;1.50;;
76725;SDS011;65651;53.154;17.916;2023-09-19T12:34:50;4.50;;;1.20;;
76725;SDS011;65651;53.154;17.916;2023-09-19T12:37:20;2.80;;;1.40;;
76725;SDS011;65651;53.154;17.916;2023-09-19T12:39:49;4.50;;;1.20;;
76725;SDS011;65651;53.154;17.916;2023-09-19T12:42:19;7.10;;;1.30;;
76725;SDS011;65651;53.154;17.916;2023-09-19T12:44:50;3.60;;;1.40;;
76725;SDS011;65651;53.154;17.916;2023-09-19T12:47:23;2.40;;;1.10;;
76725;SDS011;65651;53.154;17.916;2023-09-19T12:52:41;2.40;;;1.10;;
76725;SDS011;65651;53.154;17.916;2023-09-19T12:58:00;4.70;;;1.80;;
76725;SDS011;65651;53.154;17.916;2023-09-19T13:00:43;3.60;;;1.70;;
76725;SDS011;65651;53.154;17.916;2023-09-19T13:05:58;3.70;;;1.80;;
76725;SDS011;65651;53.154;17.916;2023-09-19T13:08:30;3.50;;;1.80;;
76725;SDS011;65651;53.154;17.916;2023-09-19T13:11:06;4.10;;;1.50;;
76725;SDS011;65651;53.154;17.916;2023-09-19T13:13:40;3.60;;;1.30;;
76725;SDS011;65651;53.154;17.916;2023-09-19T13:16:11;3.20;;;1.40;;
76725;SDS011;65651;53.154;17.916;2023-09-19T13:18:45;3.00;;;1.80;;
76725;SDS011;65651;53.154;17.916;2023-09-19T13:21:14;4.40;;;1.40;;
76725;SDS011;65651;53.154;17.916;2023-09-19T13:23:52;2.20;;;1.20;;
76725;SDS011;65651;53.154;17.916;2023-09-19T13:26:26;4.60;;;1.30;;
76725;SDS011;65651;53.154;17.916;2023-09-19T13:28:54;3.30;;;1.70;;
76725;SDS011;65651;53.154;17.916;2023-09-19T13:31:22;4.00;;;1.50;;
76725;SDS011;65651;53.154;17.916;2023-09-19T13:33:50;4.70;;;1.80;;
76725;SDS011;65651;53.154;17.916;2023-09-19T13:36:18;3.40;;;2.00;;
76725;SDS011;65651;53.154;17.916;2023-09-19T13:38:46;3.90;;;1.90;;
76725;SDS011;65651;53.154;17.916;2023-09-19T13:41:15;3.30;;;1.80;;
76725;SDS011;65651;53.154;17.916;2023-09-19T13:43:43;3.30;;;1.30;;
76725;SDS011;65651;53.154;17.916;2023-09-19T13:46:14;4.40;;;1.60;;
76725;SDS011;65651;53.154;17.916;2023-09-19T13:48:43;2.90;;;1.80;;
76725;SDS011;65651;53.154;17.916;2023-09-19T13:51:10;5.00;;;2.10;;
76725;SDS011;65651;53.154;17.916;2023-09-19T13:53:37;3.00;;;1.90;;
76725;SDS011;65651;53.154;17.916;2023-09-19T13:56:04;4.30;;;2.10;;
76725;SDS011;65651;53.154;17.916;2023-09-19T13:58:31;3.80;;;1.70;;
76725;SDS011;65651;53.154;17.916;2023-09-19T14:01:02;5.50;;;1.70;;
76725;SDS011;65651;53.154;17.916;2023-09-19T14:03:32;3.30;;;1.90;;
76725;SDS011;65651;53.154;17.916;2023-09-19T14:06:00;4.80;;;1.50;;
76725;SDS011;65651;53.154;17.916;2023-09-19T14:08:28;2.70;;;1.60;;
76725;SDS011;65651;53.154;17.916;2023-09-19T14:10:55;4.00;;;1.90;;
76725;SDS011;65651;53.154;17.916;2023-09-19T14:13:23;5.70;;;2.20;;
76725;SDS011;65651;53.154;17.916;2023-09-19T14:15:52;3.60;;;1.90;;
76725;SDS011;65651;53.154;17.916;2023-09-19T14:18:20;4.10;;;2.20;;
76725;SDS011;65651;53.154;17.916;2023-09-19T14:20:48;4.10;;;2.30;;
76725;SDS011;65651;53.154;17.916;2023-09-19T14:23:19;4.60;;;2.00;;
76725;SDS011;65651;53.154;17.916;2023-09-19T14:25:47;3.60;;;1.70;;
76725;SDS011;65651;53.154;17.916;2023-09-19T14:28:14;4.90;;;1.40;;
76725;SDS011;65651;53.154;17.916;2023-09-19T14:30:42;6.80;;;2.00;;
76725;SDS011;65651;53.154;17.916;2023-09-19T14:33:13;3.40;;;1.90;;
76725;SDS011;65651;53.154;17.916;2023-09-19T14:35:44;3.30;;;1.80;;
76725;SDS011;65651;53.154;17.916;2023-09-19T14:38:12;3.20;;;1.40;;
76725;SDS011;65651;53.154;17.916;2023-09-19T14:40:42;3.30;;;1.90;;
76725;SDS011;65651;53.154;17.916;2023-09-19T14:43:09;5.60;;;2.60;;
76725;SDS011;65651;53.154;17.916;2023-09-19T14:45:36;3.30;;;1.90;;
76725;SDS011;65651;53.154;17.916;2023-09-19T14:48:04;3.50;;;1.70;;
76725;SDS011;65651;53.154;17.916;2023-09-19T14:50:33;4.70;;;1.70;;
76725;SDS011;65651;53.154;17.916;2023-09-19T14:53:00;5.50;;;3.40;;
76725;SDS011;65651;53.154;17.916;2023-09-19T14:55:29;6.20;;;3.00;;
76725;SDS011;65651;53.154;17.916;2023-09-19T14:58:01;5.90;;;2.60;;
76725;SDS011;65651;53.154;17.916;2023-09-19T15:00:29;5.70;;;2.60;;
76725;SDS011;65651;53.154;17.916;2023-09-19T15:02:58;6.20;;;2.40;;
76725;SDS011;65651;53.154;17.916;2023-09-19T15:05:28;6.50;;;2.60;;
76725;SDS011;65651;53.154;17.916;2023-09-19T15:08:00;4.50;;;2.10;;
76725;SDS011;65651;53.154;17.916;2023-09-19T15:10:32;5.20;;;2.00;;
76725;SDS011;65651;53.154;17.916;2023-09-19T15:13:03;4.50;;;2.10;;
76725;SDS011;65651;53.154;17.916;2023-09-19T15:15:32;5.20;;;2.50;;
76725;SDS011;65651;53.154;17.916;2023-09-19T15:18:03;6.00;;;2.30;;
76725;SDS011;65651;53.154;17.916;2023-09-19T15:20:31;5.10;;;2.10;;
76725;SDS011;65651;53.154;17.916;2023-09-19T15:22:59;6.30;;;2.00;;
76725;SDS011;65651;53.154;17.916;2023-09-19T15:25:27;3.60;;;2.50;;
76725;SDS011;65651;53.154;17.916;2023-09-19T15:27:55;6.80;;;2.40;;
76725;SDS011;65651;53.154;17.916;2023-09-19T15:30:24;3.90;;;2.20;;
76725;SDS011;65651;53.154;17.916;2023-09-19T15:32:55;5.60;;;2.30;;
76725;SDS011;65651;53.154;17.916;2023-09-19T15:35:22;4.70;;;1.90;;
76725;SDS011;65651;53.154;17.916;2023-09-19T15:37:51;6.30;;;2.40;;
76725;SDS011;65651;53.154;17.916;2023-09-19T15:40:20;4.80;;;2.40;;
76725;SDS011;65651;53.154;17.916;2023-09-19T15:42:50;6.40;;;2.80;;
76725;SDS011;65651;53.154;17.916;2023-09-19T15:45:17;3.20;;;1.70;;
76725;SDS011;65651;53.154;17.916;2023-09-19T15:47:45;4.80;;;2.40;;